createdAt,value
2023-05-06T00:03:42.730Z,3.85
2023-05-06T00:08:45.218Z,4.57
2023-05-06T00:13:46.804Z,4.50
2023-05-06T00:18:48.356Z,4.68
2023-05-06T00:23:49.893Z,4.75
2023-05-06T00:28:51.452Z,4.60
2023-05-06T00:33:53.098Z,5.35
2023-05-06T00:38:54.685Z,4.90
2023-05-06T00:43:56.219Z,4.80
2023-05-06T00:48:57.899Z,4.80
2023-05-06T00:54:00.836Z,5.93
2023-05-06T00:59:02.387Z,5.88
2023-05-06T01:04:04.152Z,6.50
2023-05-06T01:09:10.692Z,5.63
2023-05-06T01:14:20.770Z,5.85
2023-05-06T01:19:37.337Z,5.70
2023-05-06T01:24:43.526Z,5.90
2023-05-06T01:29:46.736Z,6.45
2023-05-06T01:35:20.310Z,7.10
2023-05-06T01:40:26.380Z,6.32
2023-05-06T01:45:30.514Z,7.13
2023-05-06T01:50:33.289Z,7.50
2023-05-06T01:55:35.800Z,7.60
2023-05-06T02:00:38.412Z,8.13
2023-05-06T02:05:40.047Z,7.82
2023-05-06T02:10:42.383Z,7.63
2023-05-06T02:15:44.611Z,7.78
2023-05-06T02:20:50.973Z,8.32
2023-05-06T02:25:53.041Z,8.40
2023-05-06T02:30:57.803Z,8.27
2023-05-06T02:35:59.429Z,8.25
2023-05-06T02:41:01.063Z,8.18
2023-05-06T02:46:02.736Z,7.15
2023-05-06T02:51:05.379Z,7.18
2023-05-06T02:56:07.505Z,6.43
2023-05-06T03:01:09.341Z,7.18
2023-05-06T03:06:11.091Z,8.68
2023-05-06T03:11:12.935Z,9.07
2023-05-06T03:16:14.837Z,9.00
2023-05-06T03:21:20.330Z,8.60
2023-05-06T03:26:24.297Z,8.43
2023-05-06T03:31:26.772Z,8.32
2023-05-06T03:36:29.525Z,7.55
2023-05-06T03:41:31.521Z,8.77
2023-05-06T03:46:33.949Z,7.95
2023-05-06T03:51:36.130Z,8.70
2023-05-06T03:56:37.864Z,9.68
2023-05-06T04:01:39.875Z,8.32
2023-05-06T04:06:41.568Z,8.40
2023-05-06T04:11:43.454Z,8.50
2023-05-06T04:16:48.369Z,4.93
2023-05-06T04:21:49.989Z,4.40
2023-05-06T04:26:53.561Z,6.20
2023-05-06T04:31:55.386Z,6.57
2023-05-06T04:36:58.692Z,9.40
2023-05-06T04:42:23.472Z,5.60
2023-05-06T04:47:36.062Z,7.28
2023-05-06T04:52:44.277Z,7.97
2023-05-06T04:57:46.756Z,9.45
2023-05-06T05:02:48.431Z,9.48
2023-05-06T05:07:52.025Z,8.32
2023-05-06T05:12:54.060Z,7.00
2023-05-06T05:17:56.565Z,8.25
2023-05-06T05:22:58.421Z,8.88
2023-05-06T05:28:00.142Z,9.95
2023-05-06T05:33:03.987Z,8.65
2023-05-06T05:38:05.966Z,8.55
2023-05-06T05:43:07.631Z,8.68
2023-05-06T05:48:13.092Z,8.95
2023-05-06T05:53:15.197Z,8.60
2023-05-06T05:58:17.018Z,8.98
2023-05-06T06:03:19.616Z,8.45
2023-05-06T06:08:21.519Z,8.32
2023-05-06T06:13:28.782Z,7.55
2023-05-06T06:18:30.945Z,7.90
2023-05-06T06:23:32.607Z,7.55
2023-05-06T06:28:34.382Z,7.10
2023-05-06T06:33:36.130Z,7.13
2023-05-06T06:38:37.704Z,7.82
2023-05-06T06:43:39.304Z,9.20
2023-05-06T06:48:51.100Z,7.30
2023-05-06T06:53:52.755Z,6.00
2023-05-06T06:58:54.508Z,4.57
2023-05-06T07:03:56.115Z,4.57
2023-05-06T07:08:57.720Z,5.18
2023-05-06T07:13:59.390Z,4.40
2023-05-06T07:19:01.538Z,4.93
2023-05-06T07:24:03.380Z,4.57
2023-05-06T07:29:04.939Z,4.32
2023-05-06T07:34:07.758Z,3.70
2023-05-06T07:39:10.816Z,3.00
2023-05-06T07:44:12.571Z,3.10
2023-05-06T07:49:14.180Z,2.47
2023-05-06T07:54:15.833Z,2.22
2023-05-06T07:59:17.468Z,2.50
2023-05-06T08:04:19.187Z,1.70
2023-05-06T08:09:22.941Z,1.60
2023-05-06T08:14:28.197Z,1.60
2023-05-06T08:19:29.976Z,2.08
2023-05-06T08:24:31.708Z,1.70
2023-05-06T08:29:33.272Z,1.83
2023-05-06T08:34:35.041Z,1.40
2023-05-06T08:39:36.603Z,1.33
2023-05-06T08:44:38.286Z,1.55
2023-05-06T08:49:39.956Z,1.13
2023-05-06T08:54:42.659Z,1.00
2023-05-06T08:59:45.720Z,1.10
2023-05-06T09:04:48.143Z,1.30
2023-05-06T09:09:49.886Z,1.40
2023-05-06T09:14:52.178Z,1.48
2023-05-06T09:19:56.993Z,1.27
2023-05-06T09:24:58.977Z,1.25
2023-05-06T09:30:01.940Z,1.25
2023-05-06T09:35:04.024Z,1.23
2023-05-06T09:40:06.375Z,1.10
2023-05-06T09:45:08.694Z,1.13
2023-05-06T09:50:10.735Z,0.80
2023-05-06T09:55:13.125Z,0.90
2023-05-06T10:00:16.945Z,0.88
2023-05-06T10:05:18.753Z,1.10
2023-05-06T10:10:24.111Z,0.90
2023-05-06T10:15:27.181Z,0.90
2023-05-06T10:20:31.390Z,0.90
2023-05-06T10:25:38.615Z,0.80
2023-05-06T10:30:41.201Z,0.80
2023-05-06T10:35:57.307Z,0.80
2023-05-06T10:40:59.783Z,0.85
2023-05-06T10:46:02.576Z,0.80
2023-05-06T10:51:19.955Z,0.93
2023-05-06T10:56:21.728Z,0.90
2023-05-06T11:01:27.351Z,0.85
2023-05-06T11:06:37.236Z,1.00
2023-05-06T11:12:03.300Z,0.77
2023-05-06T11:17:09.864Z,0.73
2023-05-06T11:22:41.039Z,0.50
2023-05-06T11:27:42.657Z,0.60
2023-05-06T11:32:46.761Z,0.50
2023-05-06T11:37:48.425Z,0.90
2023-05-06T11:42:50.112Z,0.80
2023-05-06T11:47:54.916Z,0.80
2023-05-06T11:52:56.581Z,0.80
2023-05-06T11:57:58.112Z,0.60
2023-05-06T12:02:59.749Z,0.70
2023-05-06T12:08:01.570Z,0.70
2023-05-06T12:13:09.417Z,0.90
2023-05-06T12:18:12.641Z,0.90
2023-05-06T12:23:15.795Z,0.90
2023-05-06T12:28:19.224Z,0.90
2023-05-06T12:33:21.407Z,0.80
2023-05-06T12:38:22.970Z,1.10
2023-05-06T12:43:31.334Z,1.00
2023-05-06T12:48:33.147Z,0.90
2023-05-06T12:53:35.588Z,0.88
2023-05-06T12:58:38.094Z,0.85
2023-05-06T13:03:41.001Z,0.82
2023-05-06T13:08:42.756Z,0.85
2023-05-06T13:13:44.365Z,0.80
2023-05-06T13:18:45.928Z,0.70
2023-05-06T13:23:47.942Z,0.75
2023-05-06T13:28:49.597Z,1.02
2023-05-06T13:33:51.298Z,0.77
2023-05-06T13:38:52.916Z,0.80
2023-05-06T13:43:54.487Z,0.70
2023-05-06T13:48:56.034Z,0.65
2023-05-06T13:53:57.608Z,0.80
2023-05-06T13:58:59.447Z,0.80
2023-05-06T14:04:01.016Z,0.63
2023-05-06T14:09:02.634Z,0.73
2023-05-06T14:14:05.288Z,0.82
2023-05-06T14:19:07.059Z,0.60
2023-05-06T14:24:10.144Z,0.60
2023-05-06T14:29:11.904Z,0.60
2023-05-06T14:34:13.519Z,0.60
2023-05-06T14:39:15.630Z,0.70
2023-05-06T14:44:17.135Z,0.55
2023-05-06T14:49:18.913Z,0.60
2023-05-06T14:54:20.619Z,1.05
2023-05-06T14:59:22.673Z,0.60
2023-05-06T15:04:24.363Z,0.75
2023-05-06T15:09:26.298Z,0.65
2023-05-06T15:14:27.842Z,0.63
2023-05-06T15:19:29.529Z,0.70
2023-05-06T15:24:31.230Z,0.98
2023-05-06T15:29:32.864Z,0.68
2023-05-06T15:34:34.558Z,0.68
2023-05-06T15:39:37.896Z,0.63
2023-05-06T15:44:39.544Z,0.60
2023-05-06T15:54:49.667Z,0.80
2023-05-06T15:59:51.896Z,0.82
2023-05-06T16:04:54.018Z,0.70
2023-05-06T16:09:55.741Z,0.65
2023-05-06T16:14:57.686Z,1.17
2023-05-06T16:19:59.383Z,0.80
2023-05-06T16:25:00.947Z,0.70
2023-05-06T16:30:02.512Z,1.00
2023-05-06T16:35:04.252Z,0.80
2023-05-06T16:40:08.223Z,0.77
2023-05-06T16:45:10.496Z,0.55
2023-05-06T16:50:12.670Z,0.60
2023-05-06T16:55:14.513Z,0.68
2023-05-06T17:00:16.709Z,0.73
2023-05-06T17:05:20.678Z,0.80
2023-05-06T17:10:24.746Z,0.77
2023-05-06T17:15:26.546Z,1.15
2023-05-06T17:20:28.152Z,0.60
2023-05-06T17:25:29.681Z,0.90
2023-05-06T17:30:31.232Z,0.80
2023-05-06T17:35:32.796Z,0.70
2023-05-06T17:40:34.507Z,0.77
2023-05-06T17:45:36.185Z,0.73
2023-05-06T17:50:37.718Z,1.00
2023-05-06T17:55:39.939Z,1.10
2023-05-06T18:00:41.637Z,1.10
2023-05-06T18:05:43.196Z,0.70
2023-05-06T18:10:44.727Z,0.90
2023-05-06T18:15:46.320Z,0.70
2023-05-06T18:20:47.844Z,0.70
2023-05-06T18:25:51.601Z,0.88
2023-05-06T18:30:53.134Z,0.90
2023-05-06T18:35:54.693Z,0.90
2023-05-06T18:40:56.418Z,0.95
2023-05-06T18:45:58.112Z,0.70
2023-05-06T18:51:09.584Z,1.00
2023-05-06T18:56:11.384Z,1.05
2023-05-06T19:01:12.978Z,1.08
2023-05-06T19:06:14.694Z,1.10
2023-05-06T19:11:18.143Z,1.17
2023-05-06T19:16:19.748Z,1.10
2023-05-06T19:21:21.855Z,1.30
2023-05-06T19:26:23.499Z,1.83
2023-05-06T19:31:25.016Z,1.50
2023-05-06T19:36:26.794Z,1.48
2023-05-06T19:41:28.384Z,1.52
2023-05-06T19:46:29.955Z,1.40
2023-05-06T19:51:31.614Z,1.20
2023-05-06T19:56:33.175Z,1.45
2023-05-06T20:01:34.849Z,1.92
2023-05-06T20:06:36.423Z,1.60
2023-05-06T20:11:38.025Z,1.65
2023-05-06T20:16:40.853Z,1.50
2023-05-06T20:21:42.439Z,1.60
2023-05-06T20:26:43.956Z,1.65
2023-05-06T20:31:46.952Z,1.48
2023-05-06T20:36:49.842Z,1.85
2023-05-06T20:41:51.469Z,1.90
2023-05-06T20:46:52.972Z,1.60
2023-05-06T20:51:54.638Z,1.80
2023-05-06T20:56:57.849Z,1.40
2023-05-06T21:01:59.538Z,1.52
2023-05-06T21:07:01.147Z,1.90
2023-05-06T21:12:02.723Z,1.33
2023-05-06T21:17:04.230Z,1.58
2023-05-06T21:22:09.906Z,1.70
2023-05-06T21:27:11.489Z,1.40
2023-05-06T21:32:13.110Z,1.65
2023-05-06T21:37:14.639Z,1.63
2023-05-06T21:42:16.196Z,1.52
2023-05-06T21:47:17.740Z,1.50
2023-05-06T21:52:19.250Z,1.30
2023-05-06T21:57:20.744Z,1.20
2023-05-06T22:02:22.328Z,1.85
2023-05-06T22:07:23.892Z,1.50
2023-05-06T22:12:25.504Z,1.60
2023-05-06T22:17:27.313Z,1.50
2023-05-06T22:22:29.022Z,1.40
2023-05-06T22:27:30.945Z,1.50
2023-05-06T22:32:32.573Z,1.50
2023-05-06T22:37:34.152Z,1.50
2023-05-06T22:42:35.763Z,1.50
2023-05-06T22:47:37.364Z,1.88
2023-05-06T22:52:38.951Z,1.40
2023-05-06T22:57:40.579Z,1.35
2023-05-06T23:02:42.227Z,1.45
2023-05-06T23:07:43.807Z,1.50
2023-05-06T23:12:45.426Z,1.52
2023-05-06T23:17:47.008Z,1.40
2023-05-06T23:22:48.617Z,1.67
2023-05-06T23:27:50.188Z,1.50
2023-05-06T23:32:51.819Z,1.70
2023-05-06T23:37:53.414Z,1.88
2023-05-06T23:42:54.964Z,1.90
2023-05-06T23:47:57.044Z,1.70
2023-05-06T23:52:58.666Z,2.10
2023-05-06T23:58:00.328Z,1.65
